Terminal Aerodrome Forecast
Issued by NWS Pittsburgh, PA

Current Version | Previous Version | Graphics & Text | Print | Product List | Glossary On
Versions: 1 2 3 4 5 6 7 8 9 10 11 12 13 14 15 16 17 18 19 20 21 22 23 24 25 26 27 28 29 30 31 32 33 34 35 36 37 38
000
FTUS41 KPBZ 251400 AAB
TAFPIT
TAF AMD
KPIT 251455Z 2515/2618 13008KT 4SM -SHRA BR OVC040 WS020/19035KT
     FM251700 18012G22KT P6SM BKN025
     FM252200 22012KT P6SM SCT025
     FM260300 20003KT P6SM SCT025=

USA.gov is the U.S. government's official web portal to all federal, state and local government web resources and services.